createdAt,value
2022-12-11T00:00:05.411Z,35.08
2022-12-11T00:02:31.860Z,36.22
2022-12-11T00:04:58.377Z,37.40
2022-12-11T00:07:25.488Z,37.45
2022-12-11T00:09:52.371Z,37.63
2022-12-11T00:12:19.151Z,40.85
2022-12-11T00:14:45.599Z,42.17
2022-12-11T00:17:12.300Z,41.05
2022-12-11T00:19:38.938Z,43.72
2022-12-11T00:22:05.297Z,44.22
2022-12-11T00:24:31.920Z,43.35
2022-12-11T00:26:58.967Z,43.78
2022-12-11T00:29:25.513Z,40.55
2022-12-11T00:31:51.938Z,41.08
2022-12-11T00:34:18.363Z,43.05
2022-12-11T00:36:44.855Z,39.55
2022-12-11T00:39:11.236Z,41.25
2022-12-11T00:41:37.669Z,42.10
2022-12-11T00:44:04.242Z,35.35
2022-12-11T00:46:30.698Z,46.13
2022-12-11T00:48:57.165Z,39.03
2022-12-11T00:51:23.684Z,34.85
2022-12-11T00:53:50.033Z,32.47
2022-12-11T00:56:19.205Z,32.10
2022-12-11T00:58:47.866Z,31.73
2022-12-11T01:01:20.698Z,35.67
2022-12-11T01:03:48.115Z,36.97
2022-12-11T01:06:18.702Z,30.88
2022-12-11T01:08:45.690Z,31.00
2022-12-11T01:11:15.611Z,33.05
2022-12-11T01:13:42.378Z,31.98
2022-12-11T01:16:12.102Z,30.33
2022-12-11T01:18:38.554Z,31.10
2022-12-11T01:21:07.194Z,32.67
2022-12-11T01:23:33.606Z,35.25
2022-12-11T01:26:11.582Z,34.05
2022-12-11T01:28:38.415Z,37.22
2022-12-11T01:31:23.041Z,33.17
2022-12-11T01:33:49.624Z,33.80
2022-12-11T01:36:19.162Z,30.80
2022-12-11T01:38:46.972Z,30.52
2022-12-11T01:41:13.563Z,28.35
2022-12-11T01:43:56.762Z,30.10
2022-12-11T01:46:23.940Z,29.52
2022-12-11T01:48:50.564Z,28.38
2022-12-11T01:51:17.575Z,28.33
2022-12-11T01:53:50.216Z,27.10
2022-12-11T01:56:17.652Z,28.38
2022-12-11T01:58:52.300Z,28.55
2022-12-11T02:01:30.781Z,28.38
2022-12-11T02:03:57.261Z,27.75
2022-12-11T02:06:33.842Z,28.75
2022-12-11T02:09:00.868Z,28.52
2022-12-11T02:11:43.551Z,26.20
2022-12-11T02:14:20.576Z,27.55
2022-12-11T02:17:04.260Z,27.95
2022-12-11T02:22:13.604Z,27.90
2022-12-11T02:24:49.208Z,29.55
2022-12-11T02:27:46.081Z,28.73
2022-12-11T02:30:15.318Z,29.52
2022-12-11T02:32:55.531Z,28.67
2022-12-11T02:35:31.728Z,28.27
2022-12-11T02:38:04.447Z,29.42
2022-12-11T02:40:34.872Z,30.40
2022-12-11T02:43:04.347Z,31.52
2022-12-11T02:45:32.403Z,30.25
2022-12-11T02:48:02.845Z,30.77
2022-12-11T02:50:30.451Z,28.65
2022-12-11T02:53:00.622Z,30.85
2022-12-11T02:55:29.809Z,30.65
2022-12-11T02:58:07.981Z,28.35
2022-12-11T03:00:34.597Z,29.67
2022-12-11T03:03:02.023Z,29.92
2022-12-11T03:05:29.620Z,31.13
2022-12-11T03:07:56.318Z,30.40
2022-12-11T03:10:22.991Z,31.52
2022-12-11T03:12:53.900Z,29.27
2022-12-11T03:15:23.177Z,29.17
2022-12-11T03:18:07.949Z,31.63
2022-12-11T03:20:47.504Z,30.63
2022-12-11T03:23:40.060Z,31.33
2022-12-11T03:26:11.209Z,31.27
2022-12-11T03:28:43.588Z,33.97
2022-12-11T03:31:14.759Z,32.77
2022-12-11T03:33:45.551Z,32.58
2022-12-11T03:36:22.023Z,30.92
2022-12-11T03:39:13.342Z,30.25
2022-12-11T03:41:41.727Z,31.23
2022-12-11T03:44:09.050Z,29.88
2022-12-11T03:46:39.846Z,31.23
2022-12-11T03:49:15.352Z,30.90
2022-12-11T03:51:43.935Z,30.90
2022-12-11T03:54:11.373Z,30.55
2022-12-11T03:56:39.653Z,32.67
2022-12-11T03:59:06.053Z,29.75
2022-12-11T04:01:32.779Z,30.55
2022-12-11T04:03:59.289Z,31.63
2022-12-11T04:06:25.724Z,30.88
2022-12-11T04:08:52.150Z,31.58
2022-12-11T04:11:36.836Z,30.20
2022-12-11T04:14:22.054Z,30.45
2022-12-11T04:16:48.469Z,30.05
2022-12-11T04:19:34.076Z,29.70
2022-12-11T04:22:15.527Z,28.83
2022-12-11T04:24:41.956Z,27.20
2022-12-11T04:27:08.322Z,29.27
2022-12-11T04:29:34.714Z,27.42
2022-12-11T04:32:01.255Z,27.25
2022-12-11T04:34:27.631Z,26.75
2022-12-11T04:36:54.157Z,26.65
2022-12-11T04:39:20.546Z,26.38
2022-12-11T04:41:47.162Z,26.08
2022-12-11T04:44:13.644Z,25.40
2022-12-11T04:46:40.128Z,26.45
2022-12-11T04:49:06.632Z,26.60
2022-12-11T04:51:33.085Z,27.17
2022-12-11T04:53:59.789Z,27.90
2022-12-11T04:56:26.251Z,25.77
2022-12-11T04:58:52.715Z,26.27
2022-12-11T05:01:22.045Z,23.85
2022-12-11T05:03:49.076Z,25.35
2022-12-11T05:06:16.179Z,26.52
2022-12-11T05:08:43.365Z,25.58
2022-12-11T05:11:12.368Z,26.33
2022-12-11T05:13:39.192Z,25.73
2022-12-11T05:16:08.331Z,23.75
2022-12-11T05:18:35.558Z,26.13
2022-12-11T05:21:05.365Z,26.67
2022-12-11T05:23:31.807Z,27.73
2022-12-11T05:26:01.816Z,26.10
2022-12-11T05:28:31.577Z,25.08
2022-12-11T05:31:00.343Z,25.38
2022-12-11T05:33:27.066Z,26.92
2022-12-11T05:35:53.675Z,26.55
2022-12-11T05:38:20.311Z,26.73
2022-12-11T05:40:56.820Z,25.77
2022-12-11T05:43:23.379Z,26.02
2022-12-11T05:45:49.756Z,25.05
2022-12-11T05:48:16.462Z,27.15
2022-12-11T05:50:42.867Z,26.25
2022-12-11T05:53:09.464Z,26.27
2022-12-11T05:55:36.059Z,26.52
2022-12-11T05:58:02.628Z,25.52
2022-12-11T06:00:34.375Z,25.52
2022-12-11T06:05:28.832Z,25.88
2022-12-11T06:07:55.358Z,26.17
2022-12-11T06:10:21.771Z,27.70
2022-12-11T06:12:48.124Z,26.38
2022-12-11T06:15:14.552Z,26.02
2022-12-11T06:17:41.687Z,26.80
2022-12-11T06:20:08.517Z,28.13
2022-12-11T06:22:34.935Z,27.30
2022-12-11T06:25:01.778Z,27.35
2022-12-11T06:27:28.198Z,27.40
2022-12-11T06:29:54.579Z,28.38
2022-12-11T06:32:21.691Z,27.08
2022-12-11T06:34:48.280Z,26.63
2022-12-11T06:37:14.745Z,27.08
2022-12-11T06:39:41.190Z,27.05
2022-12-11T06:42:07.538Z,26.88
2022-12-11T06:44:34.363Z,27.00
2022-12-11T06:47:00.728Z,25.63
2022-12-11T06:49:27.378Z,26.88
2022-12-11T06:51:53.726Z,26.08
2022-12-11T06:54:20.368Z,26.30
2022-12-11T06:56:47.227Z,25.85
2022-12-11T06:59:13.618Z,25.67
2022-12-11T07:01:40.856Z,26.48
2022-12-11T07:04:09.051Z,26.83
2022-12-11T07:06:35.517Z,25.15
2022-12-11T07:09:05.343Z,26.20
2022-12-11T07:11:31.794Z,25.60
2022-12-11T07:14:01.412Z,25.02
2022-12-11T07:16:27.945Z,25.23
2022-12-11T07:18:54.366Z,23.77
2022-12-11T07:21:21.132Z,25.38
2022-12-11T07:23:48.655Z,25.17
2022-12-11T07:26:18.539Z,25.90
2022-12-11T07:28:45.758Z,25.65
2022-12-11T07:31:15.302Z,25.08
2022-12-11T07:33:42.567Z,24.85
2022-12-11T07:36:11.658Z,24.50
2022-12-11T07:38:38.079Z,24.83
2022-12-11T07:41:06.793Z,23.50
2022-12-11T07:43:34.278Z,23.77
2022-12-11T07:46:06.015Z,24.73
2022-12-11T07:48:35.528Z,25.02
2022-12-11T07:51:31.523Z,24.35
2022-12-11T07:54:01.325Z,24.00
2022-12-11T07:56:29.539Z,24.33
2022-12-11T07:58:56.051Z,24.45
2022-12-11T08:01:25.992Z,26.60
2022-12-11T08:03:53.249Z,24.58
2022-12-11T08:06:24.149Z,24.23
2022-12-11T08:08:50.752Z,24.77
2022-12-11T08:11:17.158Z,22.35
2022-12-11T08:13:43.836Z,25.52
2022-12-11T08:16:13.717Z,24.48
2022-12-11T08:18:41.516Z,23.50
2022-12-11T08:21:10.570Z,23.58
2022-12-11T08:23:36.971Z,32.72
2022-12-11T08:26:05.605Z,24.50
2022-12-11T08:28:32.318Z,22.17
2022-12-11T08:30:59.569Z,24.30
2022-12-11T08:33:26.664Z,35.33
2022-12-11T08:35:53.335Z,33.38
2022-12-11T08:38:25.013Z,26.15
2022-12-11T08:40:51.897Z,23.70
2022-12-11T08:43:18.249Z,21.95
2022-12-11T08:45:46.463Z,22.83
2022-12-11T08:48:13.035Z,23.30
2022-12-11T08:50:39.444Z,24.67
2022-12-11T08:53:06.103Z,27.75
2022-12-11T08:55:33.292Z,21.48
2022-12-11T08:57:59.981Z,21.30
2022-12-11T09:00:27.513Z,32.53
2022-12-11T09:02:53.900Z,33.15
2022-12-11T09:05:20.364Z,24.42
2022-12-11T09:07:46.800Z,26.42
2022-12-11T09:10:13.239Z,23.15
2022-12-11T09:12:40.472Z,19.88
2022-12-11T09:15:07.406Z,20.65
2022-12-11T09:17:34.644Z,20.02
2022-12-11T09:20:01.492Z,19.55
2022-12-11T09:22:28.224Z,19.35
2022-12-11T09:24:54.616Z,19.58
2022-12-11T09:27:21.246Z,18.92
2022-12-11T09:29:47.631Z,18.33
2022-12-11T09:32:14.214Z,18.98
2022-12-11T09:34:40.607Z,17.00
2022-12-11T09:37:07.335Z,18.33
2022-12-11T09:39:33.739Z,17.20
2022-12-11T09:42:24.517Z,17.83
2022-12-11T09:44:54.783Z,18.77
2022-12-11T09:47:24.929Z,18.33
2022-12-11T09:50:00.812Z,16.30
2022-12-11T09:52:57.620Z,16.33
2022-12-11T09:55:29.620Z,15.43
2022-12-11T09:58:15.024Z,15.95
2022-12-11T10:01:07.250Z,15.68
2022-12-11T10:04:03.996Z,15.35
2022-12-11T10:06:37.312Z,14.52
2022-12-11T10:12:13.445Z,15.65
2022-12-11T10:15:05.730Z,14.88
2022-12-11T10:17:34.975Z,14.13
2022-12-11T10:20:26.839Z,13.50
2022-12-11T10:22:56.708Z,14.38
2022-12-11T10:25:29.059Z,12.73
2022-12-11T10:27:56.122Z,14.20
2022-12-11T10:30:34.716Z,13.73
2022-12-11T10:33:19.581Z,14.35
2022-12-11T10:35:53.051Z,14.38
2022-12-11T10:38:33.213Z,15.00
2022-12-11T10:41:09.553Z,16.15
2022-12-11T10:43:40.056Z,15.05
2022-12-11T10:46:13.821Z,15.93
2022-12-11T10:48:50.143Z,15.23
2022-12-11T10:51:17.409Z,16.42
2022-12-11T10:53:48.980Z,23.55
2022-12-11T10:56:15.380Z,16.42
2022-12-11T10:58:50.086Z,16.35
2022-12-11T11:01:21.287Z,15.85
2022-12-11T11:04:06.427Z,16.75
2022-12-11T11:06:33.536Z,15.80
2022-12-11T11:09:01.323Z,16.40
2022-12-11T11:11:34.858Z,15.85
2022-12-11T11:14:14.032Z,15.98
2022-12-11T11:16:42.655Z,14.98
2022-12-11T11:19:18.714Z,18.50
2022-12-11T11:21:51.251Z,16.45
2022-12-11T11:24:45.089Z,15.45
2022-12-11T11:27:22.599Z,16.77
2022-12-11T11:29:54.386Z,17.27
2022-12-11T11:32:28.183Z,16.50
2022-12-11T11:35:11.531Z,18.95
2022-12-11T11:37:44.261Z,16.25
2022-12-11T11:40:21.093Z,16.60
2022-12-11T11:43:16.189Z,17.20
2022-12-11T11:45:56.410Z,16.45
2022-12-11T11:48:49.946Z,16.60
2022-12-11T11:51:26.691Z,16.48
2022-12-11T11:53:57.850Z,17.45
2022-12-11T11:56:34.942Z,16.67
2022-12-11T11:59:05.953Z,16.77
2022-12-11T12:01:32.813Z,16.73
2022-12-11T12:04:01.269Z,18.02
2022-12-11T12:06:30.542Z,16.55
2022-12-11T12:09:12.957Z,15.18
2022-12-11T12:11:51.301Z,15.35
2022-12-11T12:14:52.644Z,14.88
2022-12-11T12:18:16.913Z,15.98
2022-12-11T12:21:10.646Z,15.73
2022-12-11T12:24:01.302Z,15.70
2022-12-11T12:26:36.726Z,14.73
2022-12-11T12:29:09.363Z,14.43
2022-12-11T12:31:54.120Z,13.02
2022-12-11T12:34:26.347Z,13.95
2022-12-11T12:37:13.130Z,14.60
2022-12-11T12:40:01.758Z,15.18
2022-12-11T12:42:54.889Z,15.77
2022-12-11T12:45:26.370Z,15.80
2022-12-11T12:47:53.675Z,14.80
2022-12-11T12:50:23.696Z,14.43
2022-12-11T12:52:52.977Z,15.35
2022-12-11T12:55:24.101Z,16.73
2022-12-11T12:57:57.488Z,16.73
2022-12-11T13:02:55.952Z,17.52
2022-12-11T13:05:29.292Z,18.30
2022-12-11T13:10:38.782Z,18.13
2022-12-11T13:13:25.392Z,18.17
2022-12-11T13:15:51.815Z,18.20
2022-12-11T13:18:39.199Z,19.33
2022-12-11T13:21:29.421Z,18.05
2022-12-11T13:24:12.659Z,20.00
2022-12-11T13:26:40.172Z,18.13
2022-12-11T13:29:06.573Z,17.90
2022-12-11T13:31:38.180Z,15.05
2022-12-11T13:34:16.095Z,15.88
2022-12-11T13:36:48.803Z,15.40
2022-12-11T13:39:18.786Z,17.08
2022-12-11T13:41:52.438Z,15.75
2022-12-11T13:44:26.395Z,19.75
2022-12-11T13:46:55.269Z,18.13
2022-12-11T13:49:28.490Z,18.38
2022-12-11T13:51:58.289Z,16.40
2022-12-11T13:54:26.198Z,15.25
2022-12-11T13:56:56.740Z,15.63
2022-12-11T13:59:32.837Z,24.00
2022-12-11T14:02:04.071Z,17.80
2022-12-11T14:04:33.530Z,15.43
2022-12-11T14:07:01.776Z,25.33
2022-12-11T14:09:28.559Z,14.63
2022-12-11T14:11:57.356Z,18.92
2022-12-11T14:14:31.028Z,16.13
2022-12-11T14:16:59.039Z,15.80
2022-12-11T14:19:25.490Z,14.85
2022-12-11T14:21:56.659Z,16.17
2022-12-11T14:24:23.119Z,17.33
2022-12-11T14:26:51.047Z,15.43
2022-12-11T14:29:26.020Z,16.75
2022-12-11T14:31:53.881Z,15.60
2022-12-11T14:34:32.994Z,15.27
2022-12-11T14:37:02.493Z,15.95
2022-12-11T14:39:38.351Z,16.05
2022-12-11T14:42:14.368Z,14.93
2022-12-11T14:44:55.314Z,17.33
2022-12-11T14:47:27.141Z,16.25
2022-12-11T14:50:05.563Z,15.80
2022-12-11T14:52:47.081Z,16.98
2022-12-11T14:55:22.269Z,15.95
2022-12-11T14:57:52.325Z,15.25
2022-12-11T15:00:26.266Z,18.25
2022-12-11T15:03:12.372Z,17.40
2022-12-11T15:05:52.876Z,17.25
2022-12-11T15:08:33.191Z,16.08
2022-12-11T15:11:06.590Z,15.68
2022-12-11T15:16:02.223Z,16.50
2022-12-11T15:18:32.528Z,15.88
2022-12-11T15:21:06.834Z,16.63
2022-12-11T15:23:46.693Z,17.83
2022-12-11T15:26:13.376Z,15.82
2022-12-11T15:28:40.071Z,16.40
2022-12-11T15:31:23.526Z,16.85
2022-12-11T15:33:49.882Z,16.38
2022-12-11T15:36:24.824Z,17.88
2022-12-11T15:38:51.244Z,17.50
2022-12-11T15:41:21.368Z,16.73
2022-12-11T15:43:47.852Z,18.75
2022-12-11T15:46:14.349Z,17.50
2022-12-11T15:48:40.760Z,15.15
2022-12-11T15:51:07.139Z,14.40
2022-12-11T15:53:33.873Z,14.25
2022-12-11T15:56:00.569Z,15.32
2022-12-11T15:58:27.420Z,17.38
2022-12-11T16:00:54.403Z,14.50
2022-12-11T16:03:22.604Z,13.48
2022-12-11T16:05:51.370Z,12.73
2022-12-11T16:08:21.331Z,11.77
2022-12-11T16:10:48.434Z,12.65
2022-12-11T16:13:14.923Z,11.75
2022-12-11T16:15:43.872Z,12.75
2022-12-11T16:18:16.341Z,12.68
2022-12-11T16:20:44.166Z,14.88
2022-12-11T16:23:11.779Z,14.20
2022-12-11T16:25:39.079Z,13.27
2022-12-11T16:28:07.963Z,12.63
2022-12-11T16:30:36.952Z,11.90
2022-12-11T16:33:11.794Z,11.25
2022-12-11T16:35:39.310Z,12.00
2022-12-11T16:38:05.749Z,12.05
2022-12-11T16:40:32.202Z,13.13
2022-12-11T16:42:58.665Z,11.82
2022-12-11T16:45:27.045Z,12.65
2022-12-11T16:47:53.775Z,11.82
2022-12-11T16:50:20.759Z,13.23
2022-12-11T16:52:47.367Z,12.75
2022-12-11T16:55:14.761Z,12.65
2022-12-11T16:57:41.619Z,12.80
2022-12-11T17:00:09.831Z,13.25
2022-12-11T17:02:36.364Z,13.00
2022-12-11T17:05:03.189Z,13.88
2022-12-11T17:07:31.805Z,13.05
2022-12-11T17:09:58.296Z,14.77
2022-12-11T17:12:27.628Z,14.98
2022-12-11T17:14:55.905Z,15.63
2022-12-11T17:17:22.384Z,13.73
2022-12-11T17:19:48.759Z,14.95
2022-12-11T17:22:15.194Z,14.85
2022-12-11T17:24:41.561Z,15.18
2022-12-11T17:27:08.179Z,15.13
2022-12-11T17:29:34.569Z,14.90
2022-12-11T17:32:02.979Z,14.13
2022-12-11T17:34:34.535Z,14.07
2022-12-11T17:37:04.251Z,14.40
2022-12-11T17:39:30.792Z,15.27
2022-12-11T17:41:57.214Z,13.90
2022-12-11T17:44:24.136Z,14.13
2022-12-11T17:46:50.501Z,15.77
2022-12-11T17:49:16.895Z,18.65
2022-12-11T17:51:43.267Z,15.27
2022-12-11T17:54:09.776Z,14.55
2022-12-11T17:56:36.703Z,15.27
2022-12-11T17:59:03.599Z,14.93
2022-12-11T18:01:30.096Z,15.00
2022-12-11T18:03:56.716Z,16.67
2022-12-11T18:06:23.491Z,16.30
2022-12-11T18:08:49.992Z,15.25
2022-12-11T18:11:18.707Z,15.23
2022-12-11T18:13:48.490Z,15.13
2022-12-11T18:16:21.618Z,15.07
2022-12-11T18:18:50.174Z,15.77
2022-12-11T18:21:21.366Z,15.55
2022-12-11T18:23:49.899Z,14.98
2022-12-11T18:26:19.068Z,15.40
2022-12-11T18:28:46.489Z,14.52
2022-12-11T18:31:13.871Z,14.18
2022-12-11T18:33:42.777Z,14.75
2022-12-11T18:36:10.222Z,13.60
2022-12-11T18:38:37.465Z,17.33
2022-12-11T18:41:09.132Z,16.88
2022-12-11T18:43:36.054Z,16.23
2022-12-11T18:46:10.177Z,15.35
2022-12-11T18:48:37.246Z,15.38
2022-12-11T18:51:13.774Z,15.35
2022-12-11T18:53:40.805Z,15.30
2022-12-11T18:56:13.550Z,14.80
2022-12-11T18:58:40.671Z,14.40
2022-12-11T19:01:08.936Z,14.70
2022-12-11T19:03:35.499Z,13.13
2022-12-11T19:06:14.116Z,13.93
2022-12-11T19:08:41.340Z,14.18
2022-12-11T19:11:08.616Z,13.07
2022-12-11T19:13:35.312Z,14.73
2022-12-11T19:16:02.012Z,15.05
2022-12-11T19:18:28.526Z,14.40
2022-12-11T19:21:06.429Z,14.20
2022-12-11T19:23:35.072Z,14.93
2022-12-11T19:26:01.631Z,14.85
2022-12-11T19:28:27.962Z,14.90
2022-12-11T19:30:54.450Z,15.02
2022-12-11T19:33:20.991Z,14.68
2022-12-11T19:35:47.471Z,16.00
2022-12-11T19:38:13.943Z,18.20
2022-12-11T19:40:44.343Z,16.08
2022-12-11T19:43:11.523Z,16.08
2022-12-11T19:45:38.273Z,15.73
2022-12-11T19:48:05.054Z,16.20
2022-12-11T19:50:35.547Z,17.33
2022-12-11T19:53:01.923Z,18.00
2022-12-11T19:55:28.744Z,16.70
2022-12-11T19:57:55.416Z,16.23
2022-12-11T20:00:21.833Z,15.63
2022-12-11T20:02:48.981Z,17.63
2022-12-11T20:05:15.871Z,18.42
2022-12-11T20:07:44.369Z,16.63
2022-12-11T20:10:11.099Z,17.08
2022-12-11T20:12:37.548Z,16.15
2022-12-11T20:15:05.451Z,17.98
2022-12-11T20:17:33.159Z,17.00
2022-12-11T20:19:59.586Z,16.02
2022-12-11T20:22:25.988Z,16.65
2022-12-11T20:24:52.357Z,16.83
2022-12-11T20:27:18.720Z,17.25
2022-12-11T20:29:45.210Z,16.92
2022-12-11T20:32:11.788Z,17.55
2022-12-11T20:34:38.398Z,17.63
2022-12-11T20:37:04.854Z,18.20
2022-12-11T20:39:31.912Z,17.58
2022-12-11T20:41:58.335Z,27.17
2022-12-11T20:44:24.713Z,22.10
2022-12-11T20:46:51.523Z,23.08
2022-12-11T20:49:18.123Z,19.23
2022-12-11T20:51:45.351Z,18.73
2022-12-11T20:54:11.856Z,17.85
2022-12-11T20:56:38.813Z,18.90
2022-12-11T20:59:05.650Z,18.80
2022-12-11T21:01:32.976Z,19.58
2022-12-11T21:03:59.813Z,19.02
2022-12-11T21:06:30.708Z,19.33
2022-12-11T21:09:05.400Z,18.50
2022-12-11T21:11:31.929Z,19.60
2022-12-11T21:13:59.556Z,18.70
2022-12-11T21:16:26.465Z,19.75
2022-12-11T21:18:53.307Z,17.33
2022-12-11T21:21:19.711Z,18.58
2022-12-11T21:23:46.107Z,18.25
2022-12-11T21:26:12.994Z,18.00
2022-12-11T21:28:39.768Z,16.17
2022-12-11T21:31:09.283Z,16.50
2022-12-11T21:33:35.999Z,16.13
2022-12-11T21:36:03.557Z,15.23
2022-12-11T21:38:30.335Z,15.82
2022-12-11T21:40:57.392Z,16.42
2022-12-11T21:43:24.682Z,16.40
2022-12-11T21:46:00.811Z,16.13
2022-12-11T21:48:28.120Z,16.55
2022-12-11T21:50:54.574Z,16.02
2022-12-11T21:53:20.989Z,16.67
2022-12-11T21:55:47.359Z,15.55
2022-12-11T21:58:13.725Z,16.13
2022-12-11T22:00:40.091Z,15.70
2022-12-11T22:03:06.639Z,15.90
2022-12-11T22:05:33.102Z,15.80
2022-12-11T22:07:59.979Z,16.33
2022-12-11T22:10:28.233Z,15.18
2022-12-11T22:12:54.842Z,14.95
2022-12-11T22:15:21.232Z,16.38
2022-12-11T22:17:47.751Z,15.82
2022-12-11T22:20:14.482Z,16.67
2022-12-11T22:22:40.918Z,17.48
2022-12-11T22:25:07.977Z,15.77
2022-12-11T22:27:34.759Z,17.38
2022-12-11T22:30:01.119Z,17.50
2022-12-11T22:32:27.670Z,17.33
2022-12-11T22:34:56.129Z,16.02
2022-12-11T22:37:22.530Z,16.27
2022-12-11T22:39:48.958Z,16.00
2022-12-11T22:42:15.602Z,15.52
2022-12-11T22:44:42.762Z,16.13
2022-12-11T22:47:09.111Z,15.40
2022-12-11T22:49:35.759Z,15.15
2022-12-11T22:52:02.162Z,15.70
2022-12-11T22:54:28.685Z,14.93
2022-12-11T22:56:55.031Z,16.00
2022-12-11T22:59:21.430Z,16.48
2022-12-11T23:01:47.807Z,16.20
2022-12-11T23:04:14.182Z,17.92
2022-12-11T23:06:40.642Z,16.98
2022-12-11T23:09:07.976Z,17.10
2022-12-11T23:11:37.514Z,18.05
2022-12-11T23:14:05.748Z,18.42
2022-12-11T23:16:32.319Z,18.02
2022-12-11T23:18:58.958Z,19.35
2022-12-11T23:21:28.247Z,18.77
2022-12-11T23:23:55.847Z,19.40
2022-12-11T23:26:22.464Z,18.65
2022-12-11T23:28:50.476Z,18.92
2022-12-11T23:31:17.576Z,19.05
2022-12-11T23:33:44.521Z,19.33
2022-12-11T23:36:11.564Z,19.70
2022-12-11T23:38:38.127Z,20.10
2022-12-11T23:41:05.279Z,20.75
2022-12-11T23:43:33.327Z,20.63
2022-12-11T23:45:59.825Z,20.90
2022-12-11T23:48:26.560Z,21.15
2022-12-11T23:50:58.678Z,20.20
2022-12-11T23:53:25.807Z,21.27
2022-12-11T23:55:52.379Z,20.75
2022-12-11T23:58:18.736Z,20.92
